Time;durP1;ratioP1;P1;durP2;ratioP2;P2;SDS_P1;SDS_P2;PMS_P1;PMS_P2;Temp;Humidity;BMP_temperature;BMP_pressure;BME280_temperature;BME280_humidity;BME280_pressure;Samples;Min_cycle;Max_cycle;Signal;HPM_P1;HPM_P2
2023/07/24 00:02:08;;;;;;;4.25;2.40;;;;;;;18.67;100.00;100340.97;5110909;28;20039;-65
2023/07/24 00:04:36;;;;;;;4.47;2.72;;;;;;;18.66;100.00;100333.81;5116029;28;20051;-65
2023/07/24 00:07:04;;;;;;;3.60;2.65;;;;;;;18.66;100.00;100339.34;5095181;28;20040;-64
2023/07/24 00:09:32;;;;;;;4.82;2.70;;;;;;;18.67;100.00;100345.69;5112585;28;20486;-65
2023/07/24 00:12:00;;;;;;;5.00;2.53;;;;;;;18.68;100.00;100342.59;5115976;28;20406;-63
2023/07/24 00:14:27;;;;;;;4.13;2.40;;;;;;;18.68;100.00;100344.53;5116215;28;20059;-64
2023/07/24 00:16:55;;;;;;;6.15;2.85;;;;;;;18.69;100.00;100330.41;5095303;28;20058;-66
2023/07/24 00:19:23;;;;;;;4.22;2.75;;;;;;;18.69;100.00;100335.13;5105395;28;20047;-64
2023/07/24 00:21:51;;;;;;;5.18;2.60;;;;;;;18.69;100.00;100327.66;5114970;28;20044;-65
2023/07/24 00:24:18;;;;;;;3.88;2.65;;;;;;;18.69;100.00;100326.84;5115318;28;20521;-64
2023/07/24 00:26:46;;;;;;;5.20;2.90;;;;;;;18.68;100.00;100319.72;5114204;28;20036;-64
2023/07/24 00:29:14;;;;;;;5.82;2.83;;;;;;;18.66;100.00;100311.75;5114459;28;20044;-64
2023/07/24 00:31:42;;;;;;;4.25;2.42;;;;;;;18.67;100.00;100313.38;5114128;28;20078;-65
2023/07/24 00:34:10;;;;;;;4.68;2.78;;;;;;;18.68;100.00;100303.94;5114572;28;20051;-66
2023/07/24 00:36:40;;;;;;;3.33;2.80;;;;;;;18.67;100.00;100299.59;5096572;28;20067;-64
2023/07/24 00:39:08;;;;;;;4.53;2.78;;;;;;;18.67;100.00;100307.06;5130907;27;20044;-64
2023/07/24 00:41:35;;;;;;;4.38;2.60;;;;;;;18.67;100.00;100298.78;5115830;28;20096;-64
2023/07/24 00:44:03;;;;;;;4.35;2.65;;;;;;;18.67;100.00;100296.81;5115356;28;20051;-64
2023/07/24 00:46:32;;;;;;;3.90;2.50;;;;;;;18.67;100.00;100296.81;5113436;28;20051;-65
2023/07/24 00:49:02;;;;;;;4.97;2.78;;;;;;;18.66;100.00;100294.38;5115370;28;20055;-65
2023/07/24 00:51:33;;;;;;;4.10;2.60;;;;;;;18.65;100.00;100299.09;5113878;28;20096;-65
2023/07/24 00:54:02;;;;;;;6.07;2.90;;;;;;;18.65;100.00;100288.06;5096837;28;20051;-65
2023/07/24 00:56:31;;;;;;;6.05;3.25;;;;;;;18.65;100.00;100290.84;5090218;28;20518;-65
2023/07/24 00:59:00;;;;;;;4.88;2.63;;;;;;;18.64;100.00;100280.13;5115025;28;20449;-65
2023/07/24 01:01:29;;;;;;;5.30;3.00;;;;;;;18.62;100.00;100274.97;5114856;28;20400;-63
2023/07/24 01:03:58;;;;;;;4.40;2.90;;;;;;;18.63;100.00;100273.78;5113610;28;20406;-65
2023/07/24 01:06:26;;;;;;;4.07;2.92;;;;;;;18.63;100.00;100279.31;5095143;28;20058;-65
2023/07/24 01:08:54;;;;;;;5.32;2.75;;;;;;;18.63;100.00;100278.50;5114336;28;20055;-64
2023/07/24 01:11:47;;;;;;;3.05;2.50;;;;;;;18.62;100.00;100272.19;5114586;28;20051;-64
2023/07/24 01:14:22;;;;;;;4.60;3.08;;;;;;;18.62;100.00;100272.19;5113224;28;20053;-64
2023/07/24 01:16:50;;;;;;;6.90;3.08;;;;;;;18.62;100.00;100260.34;5113177;28;20051;-66
2023/07/24 01:19:42;;;;;;;6.95;3.20;;;;;;;18.61;100.00;100265.03;5111767;28;20514;-65
2023/07/24 01:22:38;;;;;;;5.45;3.20;;;;;;;18.61;100.00;100261.47;5114593;28;20423;-65
2023/07/24 01:25:31;;;;;;;4.43;3.05;;;;;;;18.59;100.00;100256.31;5113401;28;20047;-65
2023/07/24 01:27:59;;;;;;;5.47;3.40;;;;;;;18.59;100.00;100244.44;5113144;28;20419;-64
2023/07/24 01:30:27;;;;;;;6.57;3.70;;;;;;;18.57;100.00;100247.56;5113120;28;20124;-65
2023/07/24 01:32:54;;;;;;;7.90;3.50;;;;;;;18.55;100.00;100249.03;5113553;28;20046;-64
2023/07/24 01:35:22;;;;;;;6.57;3.40;;;;;;;18.55;100.00;100249.03;5112091;28;20060;-65
2023/07/24 01:37:50;;;;;;;4.55;3.13;;;;;;;18.53;100.00;100239.13;5079769;28;20043;-65
2023/07/24 01:40:18;;;;;;;6.10;3.50;;;;;;;18.54;100.00;100234.41;5112944;28;20054;-64
2023/07/24 01:42:46;;;;;;;4.88;3.10;;;;;;;18.55;100.00;100238.00;5112941;28;20043;-65
2023/07/24 01:45:14;;;;;;;4.45;3.28;;;;;;;18.54;100.00;100231.66;5085861;28;20047;-65
2023/07/24 01:47:42;;;;;;;5.85;3.60;;;;;;;18.55;100.00;100233.28;5114410;28;20051;-65
2023/07/24 01:50:10;;;;;;;6.95;3.50;;;;;;;18.55;100.00;100221.47;5112850;28;20048;-64
2023/07/24 01:52:38;;;;;;;5.63;3.55;;;;;;;18.55;100.00;100233.28;5113252;28;20483;-64
2023/07/24 01:55:07;;;;;;;6.15;3.50;;;;;;;18.55;100.00;100230.53;5111859;28;20050;-64
2023/07/24 01:57:34;;;;;;;6.50;3.45;;;;;;;18.54;100.00;100228.91;5096037;28;20048;-65
2023/07/24 02:00:02;;;;;;;6.43;3.60;;;;;;;18.53;100.00;100219.03;5114036;28;20513;-65
2023/07/24 02:02:32;;;;;;;7.63;3.85;;;;;;;18.53;100.00;100219.03;5114121;28;20055;-63
2023/07/24 02:05:00;;;;;;;8.50;4.00;;;;;;;18.53;100.00;100205.22;5092364;28;20040;-65
2023/07/24 02:07:27;;;;;;;8.32;3.80;;;;;;;18.52;100.00;100206.38;5099088;28;20043;-64
2023/07/24 02:09:55;;;;;;;4.80;3.35;;;;;;;18.51;100.00;100208.31;5112851;28;20047;-64
2023/07/24 02:12:23;;;;;;;6.68;3.97;;;;;;;18.51;100.00;100210.28;5111558;28;20053;-63
2023/07/24 02:14:51;;;;;;;5.20;3.55;;;;;;;18.49;100.00;100215.31;5112155;28;20140;-64
2023/07/24 02:17:20;;;;;;;5.72;3.50;;;;;;;18.49;100.00;100209.78;5079387;28;20051;-64
2023/07/24 02:19:47;;;;;;;5.97;3.45;;;;;;;18.50;100.00;100203.16;5078261;28;20066;-64
2023/07/24 02:22:16;;;;;;;4.63;3.08;;;;;;;18.50;100.00;100203.16;5111519;28;20043;-65
2023/07/24 02:24:43;;;;;;;5.25;3.05;;;;;;;18.48;100.00;100194.41;5112625;28;20475;-65
2023/07/24 02:27:31;;;;;;;5.45;3.20;;;;;;;18.47;100.00;100198.28;5112813;28;20510;-65
2023/07/24 02:29:59;;;;;;;4.25;2.88;;;;;;;18.47;100.00;100201.88;5114737;28;20056;-63
2023/07/24 02:32:26;;;;;;;5.15;3.00;;;;;;;18.47;100.00;100190.84;5095290;28;20496;-64
2023/07/24 02:34:54;;;;;;;4.95;2.95;;;;;;;18.47;100.00;100187.25;5079414;28;20048;-65
2023/07/24 02:37:22;;;;;;;5.18;2.97;;;;;;;18.48;100.00;100183.38;5114295;28;20413;-64
2023/07/24 02:39:51;;;;;;;4.38;2.85;;;;;;;18.48;100.00;100186.94;5117710;28;20055;-65
2023/07/24 02:42:20;;;;;;;5.65;3.40;;;;;;;18.48;100.00;100188.88;5116539;28;20043;-65
2023/07/24 02:44:48;;;;;;;4.93;3.10;;;;;;;18.46;100.00;100185.66;5116525;28;20040;-65
2023/07/24 02:47:15;;;;;;;4.63;2.97;;;;;;;18.45;100.00;100184.03;5117777;28;20078;-64
2023/07/24 02:49:44;;;;;;;4.70;3.08;;;;;;;18.44;100.00;100187.94;5090419;28;20040;-65
2023/07/24 02:52:12;;;;;;;4.28;3.05;;;;;;;18.45;100.00;100192.31;5097204;28;20060;-66
2023/07/24 02:54:40;;;;;;;6.30;3.40;;;;;;;18.45;100.00;100195.88;5116021;28;20047;-65
2023/07/24 02:57:08;;;;;;;4.38;3.00;;;;;;;18.45;100.00;100197.84;5116098;28;20095;-64
2023/07/24 02:59:35;;;;;;;6.93;3.28;;;;;;;18.44;100.00;100196.22;5117729;28;20058;-66
2023/07/24 03:02:04;;;;;;;5.47;3.22;;;;;;;18.43;100.00;100194.59;5117937;28;20051;-64
2023/07/24 03:04:31;;;;;;;8.25;3.25;;;;;;;18.43;100.00;100186.31;5117347;28;20047;-64
2023/07/24 03:07:00;;;;;;;5.82;3.38;;;;;;;18.41;100.00;100180.34;5116587;28;20047;-65
2023/07/24 03:09:28;;;;;;;4.70;2.70;;;;;;;18.39;100.00;100182.63;5116433;28;20039;-65
2023/07/24 03:11:56;;;;;;;4.05;2.63;;;;;;;18.38;100.00;100203.09;5117059;28;20047;-65
2023/07/24 03:14:24;;;;;;;5.25;3.03;;;;;;;18.36;100.00;100195.13;5116993;28;20093;-64
2023/07/24 03:16:52;;;;;;;7.38;2.72;;;;;;;18.36;100.00;100191.56;5115308;28;20044;-64
2023/07/24 03:19:20;;;;;;;5.32;2.80;;;;;;;18.35;100.00;100184.44;5115084;28;20479;-64
2023/07/24 03:21:48;;;;;;;5.00;2.92;;;;;;;18.33;100.00;100182.03;5114999;28;20039;-64
2023/07/24 03:24:16;;;;;;;5.28;2.70;;;;;;;18.31;100.00;100168.56;5116052;28;20476;-64
2023/07/24 03:26:44;;;;;;;4.18;2.88;;;;;;;18.29;100.00;100162.56;5098199;28;20051;-64
2023/07/24 03:29:11;;;;;;;4.10;2.67;;;;;;;18.28;100.00;100169.25;5115128;28;20043;-66
2023/07/24 03:31:40;;;;;;;5.32;2.95;;;;;;;18.26;100.00;100160.50;5115096;28;20483;-64
2023/07/24 03:34:08;;;;;;;3.80;2.70;;;;;;;18.24;100.00;100173.00;5132198;27;20092;-65
2023/07/24 03:36:41;;;;;;;3.75;2.70;;;;;;;18.18;100.00;100180.66;5114678;28;20097;-66
2023/07/24 03:39:13;;;;;;;3.95;2.83;;;;;;;18.17;100.00;100172.72;5094808;28;20047;-65
2023/07/24 03:41:42;;;;;;;4.63;2.40;;;;;;;18.15;100.00;100167.53;5106274;28;20048;-64
2023/07/24 03:44:11;;;;;;;4.03;2.88;;;;;;;18.13;100.00;100167.06;5115664;28;20122;-63
2023/07/24 03:46:38;;;;;;;3.42;2.55;;;;;;;18.12;100.00;100161.91;5116629;28;20044;-63
2023/07/24 03:49:06;;;;;;;4.03;2.50;;;;;;;18.08;100.00;100159.00;5102233;28;20048;-63
2023/07/24 03:51:34;;;;;;;5.72;2.72;;;;;;;18.08;100.00;100165.31;5124150;28;20400;-66
2023/07/24 03:54:01;;;;;;;2.92;2.30;;;;;;;18.08;100.00;100164.50;5120637;28;20039;-62
2023/07/24 03:56:29;;;;;;;4.43;2.65;;;;;;;18.09;100.00;100157.88;5123512;28;20107;-64
2023/07/24 03:58:57;;;;;;;5.55;2.80;;;;;;;18.09;100.00;100149.59;5123872;28;20043;-63
2023/07/24 04:01:25;;;;;;;5.45;2.92;;;;;;;18.10;100.00;100151.19;5123854;28;20052;-65
2023/07/24 04:03:53;;;;;;;4.97;2.72;;;;;;;18.10;100.00;100162.22;5123537;28;20051;-63
2023/07/24 04:06:21;;;;;;;3.95;2.80;;;;;;;18.09;100.00;100172.44;5095396;28;20114;-62
2023/07/24 04:08:49;;;;;;;6.70;3.22;;;;;;;18.10;100.00;100171.28;5097175;28;20052;-63
2023/07/24 04:11:16;;;;;;;4.38;2.83;;;;;;;18.08;100.00;100170.03;5095507;28;20046;-64
2023/07/24 04:13:44;;;;;;;4.20;2.97;;;;;;;18.08;100.00;100159.00;5111353;28;20107;-64
2023/07/24 04:16:12;;;;;;;4.22;3.17;;;;;;;18.08;100.00;100170.81;5116162;28;20044;-65
2023/07/24 04:18:39;;;;;;;5.03;3.15;;;;;;;18.07;100.00;100163.69;5114195;28;20043;-64
2023/07/24 04:21:07;;;;;;;5.82;3.22;;;;;;;18.08;100.00;100164.50;5115459;28;20092;-64
2023/07/24 04:23:35;;;;;;;5.53;3.40;;;;;;;18.08;100.00;100164.50;5116026;28;20131;-66
2023/07/24 04:26:04;;;;;;;5.35;3.40;;;;;;;18.07;100.00;100176.69;5098033;28;20055;-65
2023/07/24 04:28:32;;;;;;;7.50;3.40;;;;;;;18.06;100.00;100180.56;5115712;28;20039;-64
2023/07/24 04:31:03;;;;;;;5.50;3.30;;;;;;;18.04;100.00;100175.41;5113437;28;20047;-65
2023/07/24 04:33:31;;;;;;;4.63;3.13;;;;;;;18.03;100.00;100168.25;5115916;28;20043;-65
2023/07/24 04:35:59;;;;;;;7.10;3.45;;;;;;;18.02;100.00;100166.66;5115474;28;20071;-64
2023/07/24 04:38:27;;;;;;;5.22;3.30;;;;;;;18.02;100.00;100171.38;5113513;28;20523;-64
2023/07/24 04:40:55;;;;;;;6.68;3.42;;;;;;;18.00;100.00;100184.69;5077604;28;20512;-65
2023/07/24 04:43:23;;;;;;;5.45;3.38;;;;;;;18.00;100.00;100171.69;5083250;28;20051;-65
2023/07/24 04:45:50;;;;;;;6.38;3.38;;;;;;;18.00;100.00;100179.16;5113729;28;20050;-66
2023/07/24 04:48:18;;;;;;;6.15;3.58;;;;;;;17.94;100.00;100180.47;5115185;28;20544;-64
2023/07/24 04:50:46;;;;;;;6.53;3.83;;;;;;;17.93;100.00;100178.88;5114468;28;20042;-64
2023/07/24 04:53:14;;;;;;;5.30;3.40;;;;;;;17.93;100.00;100179.69;5112880;28;20406;-65
2023/07/24 04:55:42;;;;;;;6.72;3.75;;;;;;;17.95;100.00;100187.63;5113339;28;20043;-65
2023/07/24 04:58:09;;;;;;;5.80;3.67;;;;;;;17.95;100.00;100187.63;5114901;28;20048;-64
2023/07/24 05:00:37;;;;;;;6.97;3.47;;;;;;;17.95;100.00;100182.13;5114634;28;20058;-65
2023/07/24 05:03:06;;;;;;;4.22;3.10;;;;;;;17.93;100.00;100174.16;5113455;28;20411;-65
2023/07/24 05:05:34;;;;;;;5.45;3.03;;;;;;;17.93;100.00;100173.38;5113821;28;20050;-65
2023/07/24 05:08:02;;;;;;;5.80;3.38;;;;;;;17.91;100.00;100168.19;5113966;28;20039;-65
2023/07/24 05:10:29;;;;;;;6.15;3.50;;;;;;;17.91;100.00;100176.44;5113348;28;20055;-64
2023/07/24 05:12:57;;;;;;;6.85;3.85;;;;;;;17.92;100.00;100177.25;5114227;28;20080;-65
2023/07/24 05:15:25;;;;;;;4.28;3.28;;;;;;;17.87;100.00;100173.56;5113223;28;20053;-64
2023/07/24 05:17:53;;;;;;;5.30;3.40;;;;;;;17.86;100.00;100179.41;5112443;28;20399;-64
2023/07/24 05:20:21;;;;;;;4.93;3.42;;;;;;;17.85;100.00;100189.63;5114556;28;20047;-65
2023/07/24 05:22:48;;;;;;;4.97;3.60;;;;;;;17.85;100.00;100188.81;5115216;28;20050;-63
2023/07/24 05:25:16;;;;;;;6.78;2.50;;;;;;;17.85;100.00;100189.63;5114503;28;20395;-64
2023/07/24 05:27:44;;;;;;;5.60;3.35;;;;;;;17.88;100.00;100193.66;5113426;28;20048;-64
2023/07/24 05:30:13;;;;;;;5.55;2.80;;;;;;;17.92;100.00;100193.78;5113612;28;20047;-65
2023/07/24 05:32:42;;;;;;;6.70;4.00;;;;;;;17.88;100.00;100194.47;5120944;28;20487;-63
2023/07/24 05:35:10;;;;;;;7.32;4.10;;;;;;;17.90;100.00;100198.84;5094446;28;20044;-65
2023/07/24 05:37:38;;;;;;;5.25;3.10;;;;;;;17.88;100.00;100202.72;5104970;28;20051;-66
2023/07/24 05:40:06;;;;;;;4.53;3.20;;;;;;;17.88;100.00;100199.97;5075830;28;20074;-64
2023/07/24 05:42:41;;;;;;;7.35;4.47;;;;;;;17.86;100.00;100204.19;5093865;28;20044;-64
2023/07/24 05:45:09;;;;;;;7.13;4.30;;;;;;;17.85;100.00;100208.13;5059584;28;20044;-64
2023/07/24 05:47:37;;;;;;;7.60;4.50;;;;;;;17.82;100.00;100201.31;5049144;28;20044;-66
2023/07/24 05:50:05;;;;;;;6.80;4.07;;;;;;;17.81;100.00;100202.44;4366921;28;10000762;-67
2023/07/24 05:52:33;;;;;;;4.65;3.47;;;;;;;17.83;100.00;100205.69;5089939;28;20051;-65
2023/07/24 05:55:01;;;;;;;11.23;4.50;;;;;;;17.85;100.00;100206.16;5110509;28;20055;-65
2023/07/24 05:57:29;;;;;;;8.32;4.45;;;;;;;17.86;100.00;100213.28;5091081;28;20051;-67
2023/07/24 05:59:56;;;;;;;8.43;4.20;;;;;;;17.87;100.00;100208.56;5089874;28;20040;-65
2023/07/24 06:02:24;;;;;;;8.63;4.35;;;;;;;17.91;100.00;100205.97;5105122;28;20054;-66
2023/07/24 06:04:52;;;;;;;8.93;4.35;;;;;;;17.93;100.00;100206.44;5074323;28;20052;-66
2023/07/24 06:07:20;;;;;;;9.05;4.00;;;;;;;17.95;100.00;100204.16;5091989;28;20058;-67
2023/07/24 06:09:49;;;;;;;6.90;4.05;;;;;;;18.00;100.00;100212.25;5107935;28;20063;-66
2023/07/24 06:12:17;;;;;;;7.43;4.72;;;;;;;18.00;100.00;100215.81;5109773;28;20411;-65
2023/07/24 06:14:45;;;;;;;7.93;4.03;;;;;;;18.00;100.00;100210.28;5109222;28;20061;-66
2023/07/24 06:17:13;;;;;;;7.55;4.32;;;;;;;18.03;100.00;100212.38;5110300;28;20048;-65
2023/07/24 06:19:41;;;;;;;10.80;4.40;;;;;;;18.04;100.00;100215.97;5109531;28;20050;-66
2023/07/24 06:22:09;;;;;;;8.43;4.60;;;;;;;18.06;100.00;100211.72;5075957;28;20097;-65
2023/07/24 06:24:37;;;;;;;8.63;5.80;;;;;;;18.00;100.00;100215.81;5075573;28;20063;-66
2023/07/24 06:27:06;;;;;;;7.72;4.50;;;;;;;17.99;100.00;100210.59;5102312;28;20066;-66
2023/07/24 06:29:34;;;;;;;9.27;4.47;;;;;;;18.02;100.00;100216.28;5104871;28;20454;-67
2023/07/24 06:32:03;;;;;;;9.68;5.65;;;;;;;18.07;100.00;100207.00;5113059;28;20056;-66
2023/07/24 06:34:31;;;;;;;9.88;5.93;;;;;;;18.08;100.00;100217.69;5092421;28;20051;-67
2023/07/24 06:36:59;;;;;;;10.27;5.43;;;;;;;18.08;100.00;100219.63;5091313;28;20055;-66
2023/07/24 06:39:43;;;;;;;8.77;4.97;;;;;;;18.10;100.00;100214.59;5094518;28;20048;-67
2023/07/24 06:42:11;;;;;;;9.77;4.32;;;;;;;18.22;100.00;100214.69;5091414;28;20042;-66
2023/07/24 06:44:39;;;;;;;8.27;3.67;;;;;;;18.33;100.00;100211.53;5113407;28;20051;-65
2023/07/24 06:47:06;;;;;;;7.90;5.07;;;;;;;18.32;100.00;100213.50;5092630;28;20059;-66
2023/07/24 06:49:35;;;;;;;7.63;5.05;;;;;;;18.29;100.00;100220.47;5113707;28;20052;-68
2023/07/24 06:52:03;;;;;;;7.07;3.92;;;;;;;18.31;100.00;100223.72;5087570;28;20043;-66
2023/07/24 06:54:31;;;;;;;5.25;3.47;;;;;;;18.45;100.00;100219.91;5100761;28;20071;-67
2023/07/24 06:56:59;;;;;;;11.30;6.97;;;;;;;18.42;100.00;100226.06;5093406;28;20039;-65
2023/07/24 06:59:27;;;;;;;8.75;5.20;;;;;;;18.28;100.00;100227.16;5109180;28;20052;-65
2023/07/24 07:01:55;;;;;;;9.93;5.28;;;;;;;18.30;100.00;100211.09;5078175;28;20081;-65
2023/07/24 07:04:22;;;;;;;10.77;6.60;;;;;;;18.28;100.00;100221.63;5076728;28;20042;-67
2023/07/24 07:06:50;;;;;;;9.32;4.65;;;;;;;18.26;100.00;100221.16;5108475;28;20052;-66
2023/07/24 07:09:18;;;;;;;11.88;7.40;;;;;;;18.21;100.00;100218.59;5106239;28;20082;-66
2023/07/24 07:11:46;;;;;;;13.48;8.88;;;;;;;18.14;100.00;100217.53;5094123;28;20113;-64
2023/07/24 07:14:14;;;;;;;14.77;7.97;;;;;;;18.17;100.00;100216.84;5112598;28;20051;-68
2023/07/24 07:16:42;;;;;;;14.90;9.15;;;;;;;18.19;100.00;100220.88;5095018;28;20055;-65
2023/07/24 07:19:10;;;;;;;14.70;8.93;;;;;;;18.22;100.00;100222.97;5098235;28;20052;-66
2023/07/24 07:21:37;;;;;;;13.70;10.13;;;;;;;18.18;100.00;100224.75;5116388;28;20043;-66
2023/07/24 07:24:06;;;;;;;46.33;12.98;;;;;;;18.20;100.00;100219.72;5113094;28;20054;-65
2023/07/24 07:26:33;;;;;;;33.72;11.95;;;;;;;18.26;100.00;100221.16;5116956;28;20505;-66
2023/07/24 07:29:01;;;;;;;25.48;11.05;;;;;;;18.28;100.00;100229.13;5115457;28;20059;-65
2023/07/24 07:31:29;;;;;;;19.75;9.65;;;;;;;18.29;100.00;100220.47;5097686;28;20052;-67
2023/07/24 07:33:57;;;;;;;12.98;8.60;;;;;;;18.27;100.00;100225.53;5097765;28;20403;-65
2023/07/24 07:36:24;;;;;;;17.38;9.15;;;;;;;18.21;100.00;100221.34;5087028;28;20056;-65
2023/07/24 07:38:52;;;;;;;42.15;14.68;;;;;;;18.24;100.00;100217.13;5081680;28;20054;-65
2023/07/24 07:41:20;;;;;;;35.85;13.52;;;;;;;18.26;100.00;100221.16;5055006;28;20048;-66
2023/07/24 07:43:48;;;;;;;19.95;10.30;;;;;;;18.23;100.00;100213.56;5096658;28;20106;-64
2023/07/24 07:46:15;;;;;;;16.83;9.80;;;;;;;18.25;100.00;100208.50;5075632;28;20521;-64
2023/07/24 07:48:43;;;;;;;15.10;9.27;;;;;;;18.22;100.00;100213.88;5116288;28;20101;-65
2023/07/24 07:51:11;;;;;;;18.40;9.15;;;;;;;18.19;100.00;100209.06;5098535;28;20101;-65
2023/07/24 07:53:40;;;;;;;13.38;8.68;;;;;;;18.16;100.00;100216.03;5082062;28;20058;-63
2023/07/24 07:56:08;;;;;;;18.63;8.98;;;;;;;18.15;100.00;100214.41;5115701;28;20047;-65
2023/07/24 07:58:35;;;;;;;12.50;8.95;;;;;;;18.16;100.00;100215.22;5098322;28;20081;-64
2023/07/24 08:01:07;;;;;;;11.07;7.53;;;;;;;18.16;100.00;100215.22;5098073;28;20044;-65
2023/07/24 08:03:35;;;;;;;14.23;7.43;;;;;;;18.13;100.00;100222.19;5116162;28;20501;-65
2023/07/24 08:06:03;;;;;;;15.65;7.63;;;;;;;18.14;100.00;100212.81;5115210;28;20051;-65
2023/07/24 08:08:31;;;;;;;10.95;6.38;;;;;;;18.13;100.00;100219.44;5098062;28;20496;-65
2023/07/24 08:11:03;;;;;;;9.45;6.13;;;;;;;18.16;100.00;100210.53;5115712;28;20039;-63
2023/07/24 08:13:30;;;;;;;8.85;5.72;;;;;;;18.18;100.00;100202.72;5117058;28;20498;-64
2023/07/24 08:15:59;;;;;;;12.45;6.57;;;;;;;18.23;100.00;100213.56;5122105;28;20107;-62
2023/07/24 08:18:27;;;;;;;11.23;6.13;;;;;;;18.26;100.00;100212.88;5125828;28;20095;-63
2023/07/24 08:20:54;;;;;;;9.05;5.32;;;;;;;18.29;100.00;100223.25;5125258;28;20377;-64
2023/07/24 08:23:22;;;;;;;13.20;6.22;;;;;;;18.35;100.00;100223.03;5099227;28;20051;-64
2023/07/24 08:25:53;;;;;;;12.48;6.38;;;;;;;18.48;100.00;100233.03;5102869;28;20093;-65
2023/07/24 08:28:22;;;;;;;13.77;6.22;;;;;;;18.43;100.00;100219.44;5093122;28;20135;-66
2023/07/24 08:31:01;;;;;;;12.43;6.15;;;;;;;18.37;100.00;100221.56;5126327;28;20095;-62
2023/07/24 08:33:33;;;;;;;11.95;5.90;;;;;;;18.34;100.00;100221.44;5115665;28;20051;-64
2023/07/24 08:36:03;;;;;;;9.27;5.40;;;;;;;18.29;100.00;100220.47;5114830;28;20051;-65
2023/07/24 08:38:30;;;;;;;8.23;5.68;;;;;;;18.31;100.00;100218.19;5097099;28;20043;-64
2023/07/24 08:41:06;;;;;;;8.63;5.72;;;;;;;18.29;100.00;100217.72;5088848;28;20043;-65
2023/07/24 08:43:35;;;;;;;8.57;4.78;;;;;;;18.30;100.00;100218.53;5097792;28;20047;-66
2023/07/24 08:46:04;;;;;;;8.27;5.20;;;;;;;18.31;100.00;100207.16;5092416;28;20040;-64
2023/07/24 08:48:38;;;;;;;9.23;5.15;;;;;;;18.36;100.00;100208.13;5096830;28;20469;-65
2023/07/24 08:51:08;;;;;;;7.35;4.07;;;;;;;18.44;100.00;100210.81;5114874;28;20092;-65
2023/07/24 08:53:38;;;;;;;9.60;6.18;;;;;;;18.47;100.00;100196.34;5097360;28;20112;-65
2023/07/24 08:56:10;;;;;;;9.82;4.18;;;;;;;18.52;100.00;100190.63;5114255;28;20043;-66
2023/07/24 08:58:39;;;;;;;9.13;6.55;;;;;;;18.60;100.00;100199.97;5079333;28;20063;-65
2023/07/24 09:01:08;;;;;;;10.60;6.45;;;;;;;18.54;100.00;100195.78;5114407;28;20052;-65
2023/07/24 09:03:36;;;;;;;10.00;6.55;;;;;;;18.44;100.00;100199.75;5096456;28;20051;-66
2023/07/24 09:06:07;;;;;;;11.93;6.65;;;;;;;18.42;100.00;100195.72;5096091;28;20050;-66
2023/07/24 09:08:39;;;;;;;11.32;6.82;;;;;;;18.42;100.00;100193.78;5115008;28;20054;-66
2023/07/24 09:11:09;;;;;;;9.98;6.68;;;;;;;18.43;100.00;100197.38;5079845;28;20040;-65
2023/07/24 09:13:41;;;;;;;8.60;4.90;;;;;;;18.43;100.00;100197.38;5114257;28;20044;-68
2023/07/24 09:16:09;;;;;;;8.40;5.60;;;;;;;18.41;100.00;100194.13;5095784;28;20071;-69
2023/07/24 09:18:47;;;;;;;9.65;6.00;;;;;;;18.38;100.00;100186.53;5096586;28;20044;-68
2023/07/24 09:21:44;;;;;;;12.25;6.57;;;;;;;18.41;100.00;100177.59;5083932;28;20035;-66
2023/07/24 09:24:13;;;;;;;11.88;6.75;;;;;;;18.40;100.00;100171.25;5096329;28;20047;-66
2023/07/24 09:26:53;;;;;;;8.40;5.80;;;;;;;18.48;100.00;100164.84;5079612;28;20051;-66
2023/07/24 09:29:31;;;;;;;11.43;5.93;;;;;;;18.47;100.00;100159.66;5096683;28;20433;-65
2023/07/24 09:32:02;;;;;;;11.27;5.80;;;;;;;18.50;100.00;100159.00;5096094;28;20052;-66
2023/07/24 09:34:32;;;;;;;10.38;6.10;;;;;;;18.51;100.00;100160.63;5094937;28;20034;-65
2023/07/24 09:37:00;;;;;;;14.07;4.43;;;;;;;18.58;100.00;100154.56;5078305;28;20059;-65
2023/07/24 09:39:28;;;;;;;11.63;5.25;;;;;;;18.66;100.00;100156.41;5088683;28;20058;-65
2023/07/24 09:42:04;;;;;;;8.15;5.30;;;;;;;18.66;100.00;100151.69;5110606;28;20039;-65
2023/07/24 09:44:33;;;;;;;9.50;4.90;;;;;;;18.60;100.00;100142.03;5095640;28;20054;-65
2023/07/24 09:47:02;;;;;;;9.02;5.30;;;;;;;18.56;100.00;100146.59;5114190;28;20414;-64
2023/07/24 09:49:52;;;;;;;8.50;5.32;;;;;;;18.54;100.00;100148.91;5098508;28;20050;-65
2023/07/24 09:52:29;;;;;;;9.23;5.38;;;;;;;18.56;100.00;100143.84;5102624;28;20059;-66
2023/07/24 09:55:12;;;;;;;8.85;5.10;;;;;;;18.56;100.00;100135.56;5095476;28;20509;-66
2023/07/24 09:57:40;;;;;;;7.45;5.18;;;;;;;18.58;100.00;100121.44;5095356;28;20051;-65
2023/07/24 10:00:09;;;;;;;8.60;4.90;;;;;;;18.51;100.00;100110.94;5095550;28;20050;-67
2023/07/24 10:02:37;;;;;;;6.72;4.57;;;;;;;18.55;100.00;100111.91;5095297;28;20564;-67
2023/07/24 10:05:05;;;;;;;8.20;5.00;;;;;;;18.52;100.00;100123.63;5112748;28;20430;-65
2023/07/24 10:07:33;;;;;;;7.63;4.90;;;;;;;18.51;100.00;100124.75;5093885;28;20051;-66
2023/07/24 10:10:02;;;;;;;8.93;5.55;;;;;;;18.52;100.00;100127.19;5110052;28;20077;-68
2023/07/24 10:12:31;;;;;;;8.07;5.75;;;;;;;18.56;100.00;100119.00;5103681;28;20102;-65
2023/07/24 10:14:59;;;;;;;8.65;5.90;;;;;;;18.47;100.00;100110.84;5096173;28;20124;-66
2023/07/24 10:17:41;;;;;;;7.70;5.13;;;;;;;18.45;100.00;100106.81;5079312;28;20123;-66
2023/07/24 10:20:11;;;;;;;8.30;4.82;;;;;;;18.49;100.00;100116.00;5096715;28;20039;-64
2023/07/24 10:22:43;;;;;;;8.85;5.40;;;;;;;18.52;100.00;100129.13;5115494;28;20043;-64
2023/07/24 10:25:11;;;;;;;8.73;5.60;;;;;;;18.57;100.00;100130.84;5096207;28;20047;-65
2023/07/24 10:27:44;;;;;;;8.55;5.15;;;;;;;18.56;100.00;100135.56;5111997;28;20048;-65
2023/07/24 10:30:12;;;;;;;7.70;5.15;;;;;;;18.59;100.00;100137.66;5095892;28;20456;-64
2023/07/24 10:32:47;;;;;;;6.22;3.83;;;;;;;18.60;100.00;100153.06;5106984;28;20044;-64
2023/07/24 10:35:17;;;;;;;8.85;5.47;;;;;;;18.68;100.00;100168.72;5113833;28;20043;-64
2023/07/24 10:37:45;;;;;;;8.80;5.90;;;;;;;18.63;100.00;100168.13;4385863;28;9999931;-66
2023/07/24 10:40:21;;;;;;;10.68;5.80;;;;;;;18.54;100.00;100159.94;5109525;28;20058;-66
2023/07/24 10:43:00;;;;;;;10.35;6.28;;;;;;;18.48;100.00;100164.06;5089830;28;20047;-65
2023/07/24 10:45:37;;;;;;;8.73;5.07;;;;;;;18.46;100.00;100158.06;5089576;28;20048;-65
2023/07/24 10:48:05;;;;;;;9.05;5.22;;;;;;;18.44;100.00;100143.78;5101313;28;20047;-65
2023/07/24 10:50:38;;;;;;;8.35;5.38;;;;;;;18.46;100.00;100147.81;5109817;28;20070;-66
2023/07/24 10:53:06;;;;;;;8.70;4.63;;;;;;;18.52;100.00;100151.22;5095217;28;20050;-65
2023/07/24 10:55:33;;;;;;;7.43;4.90;;;;;;;18.57;100.00;100159.28;5095247;28;20047;-66
2023/07/24 10:58:01;;;;;;;9.52;6.22;;;;;;;18.61;100.00;100162.94;5112482;28;20403;-67
2023/07/24 11:00:29;;;;;;;7.60;4.80;;;;;;;18.69;100.00;100167.59;5111570;28;20399;-66
2023/07/24 11:02:57;;;;;;;8.50;5.45;;;;;;;18.78;100.00;100177.78;5044625;28;20080;-65
2023/07/24 11:05:25;;;;;;;7.90;4.63;;;;;;;18.84;100.00;100168.94;5095103;28;20043;-65
2023/07/24 11:07:52;;;;;;;7.22;4.72;;;;;;;18.88;100.00;100174.56;5093562;28;20039;-65
2023/07/24 11:10:22;;;;;;;9.50;5.82;;;;;;;18.90;100.00;100167.56;5113557;28;20051;-66
2023/07/24 11:12:53;;;;;;;6.38;4.35;;;;;;;18.97;100.00;100166.22;5094852;28;20116;-66
2023/07/24 11:15:28;;;;;;;6.00;3.65;;;;;;;19.04;100.00;100161.75;5095439;28;20047;-66
2023/07/24 11:17:55;;;;;;;8.73;4.70;;;;;;;19.10;100.00;100163.16;5111983;28;20066;-67
2023/07/24 11:20:23;;;;;;;7.30;3.97;;;;;;;19.08;100.00;100157.16;5111786;28;20040;-64
2023/07/24 11:22:51;;;;;;;9.18;4.72;;;;;;;19.12;100.00;100146.22;5091866;28;20053;-65
2023/07/24 11:25:19;;;;;;;8.02;4.28;;;;;;;19.11;100.00;100142.66;5112742;28;20409;-66